createdAt,value
2022-07-30T07:07:41.158Z,60.80
2022-07-30T07:08:31.671Z,59.45
2022-07-30T07:09:30.651Z,57.03
2022-07-30T07:10:30.672Z,56.85
2022-07-30T07:11:30.611Z,57.15
2022-07-30T07:12:30.618Z,57.65
2022-07-30T07:13:30.589Z,58.25
2022-07-30T07:14:30.596Z,59.95
2022-07-30T07:15:36.121Z,59.00
2022-07-30T07:16:31.644Z,57.90
2022-07-30T07:17:30.548Z,56.93
2022-07-30T07:18:30.538Z,58.25
2022-07-30T07:20:01.529Z,58.65
2022-07-30T07:20:31.899Z,58.15
2022-07-30T07:21:30.519Z,58.15
2022-07-30T07:22:30.474Z,57.65
2022-07-30T07:23:41.864Z,57.86
2022-07-30T07:24:31.462Z,57.86
2022-07-30T07:25:30.442Z,58.23
2022-07-30T07:26:30.462Z,57.60
2022-07-30T07:27:30.430Z,57.30
2022-07-30T07:28:33.365Z,57.00
2022-07-30T07:29:30.439Z,58.10
2022-07-30T07:30:30.459Z,58.29
2022-07-30T07:32:07.000Z,57.77
2022-07-30T07:32:31.373Z,57.07
2022-07-30T07:33:30.360Z,57.77
2022-07-30T07:34:30.351Z,56.72
2022-07-30T07:35:30.348Z,56.15
2022-07-30T07:36:30.337Z,56.65
2022-07-30T07:37:30.327Z,56.98
2022-07-30T07:38:30.317Z,58.27
2022-07-30T07:39:30.312Z,57.05
2022-07-30T07:40:30.306Z,56.08
2022-07-30T07:41:30.276Z,57.24
2022-07-30T07:42:31.266Z,56.25
2022-07-30T07:43:30.273Z,56.23
2022-07-30T07:44:30.247Z,56.68
2022-07-30T07:45:30.252Z,56.57
2022-07-30T07:46:33.939Z,57.03
2022-07-30T07:47:30.222Z,59.15
2022-07-30T07:48:30.217Z,58.95
2022-07-30T07:49:30.206Z,57.82
2022-07-30T07:50:30.219Z,57.82
2022-07-30T07:51:46.760Z,57.23
2022-07-30T07:52:31.164Z,57.03
2022-07-30T07:53:30.157Z,56.90
2022-07-30T07:54:30.149Z,57.10
2022-07-30T07:55:31.671Z,56.81
2022-07-30T07:56:30.138Z,57.43
2022-07-30T07:57:30.112Z,58.10
2022-07-30T07:58:31.057Z,57.30
2022-07-30T07:59:39.583Z,57.10
2022-07-30T08:00:31.085Z,57.07
2022-07-30T08:01:30.144Z,57.28
2022-07-30T08:02:30.143Z,57.28
2022-07-30T08:03:30.060Z,57.07
2022-07-30T08:04:30.049Z,56.77
2022-07-30T08:06:01.023Z,56.27
2022-07-30T08:06:31.038Z,57.05
2022-07-30T08:07:30.036Z,57.02
2022-07-30T08:08:30.007Z,56.70
2022-07-30T08:09:40.888Z,55.60
2022-07-30T08:10:30.977Z,55.70
2022-07-30T08:11:29.986Z,56.10
2022-07-30T08:12:29.964Z,55.44
2022-07-30T08:13:51.720Z,55.27
2022-07-30T08:14:30.937Z,56.24
2022-07-30T08:15:29.925Z,54.93
2022-07-30T08:16:29.976Z,54.43
2022-07-30T08:17:29.915Z,55.42
2022-07-30T08:18:29.895Z,55.12
2022-07-30T08:19:29.896Z,54.80
2022-07-30T08:20:33.477Z,53.53
2022-07-30T08:21:29.872Z,53.93
2022-07-30T08:22:29.867Z,55.05
2022-07-30T08:23:29.840Z,54.72
2022-07-30T08:24:29.852Z,55.55
2022-07-30T08:25:29.838Z,55.74
2022-07-30T08:26:29.813Z,54.53
2022-07-30T08:27:29.801Z,54.85
2022-07-30T08:28:35.490Z,55.55
2022-07-30T08:29:30.789Z,55.72
2022-07-30T08:30:29.789Z,54.13
2022-07-30T08:31:29.770Z,55.44
2022-07-30T08:32:29.757Z,55.18
2022-07-30T08:33:29.746Z,55.87
2022-07-30T08:34:29.736Z,55.77
2022-07-30T08:35:29.722Z,55.10
2022-07-30T08:36:29.710Z,56.17
2022-07-30T08:37:29.715Z,55.87
2022-07-30T08:38:29.693Z,56.17
2022-07-30T08:39:29.692Z,56.54
2022-07-30T08:40:29.663Z,55.44
2022-07-30T08:41:29.654Z,54.53
2022-07-30T08:42:29.653Z,53.93
2022-07-30T08:43:29.648Z,53.63
2022-07-30T08:44:29.653Z,53.96
2022-07-30T08:45:34.779Z,54.28
2022-07-30T08:46:30.600Z,54.08
2022-07-30T08:47:29.599Z,54.97
2022-07-30T08:48:29.590Z,56.07
2022-07-30T08:49:29.579Z,54.25
2022-07-30T08:50:29.577Z,55.05
2022-07-30T08:51:29.549Z,53.76
2022-07-30T08:52:29.537Z,55.74
2022-07-30T08:53:29.530Z,55.02
2022-07-30T08:54:29.522Z,53.66
2022-07-30T08:55:29.534Z,54.35
2022-07-30T08:56:29.506Z,53.96
2022-07-30T08:57:29.493Z,54.65
2022-07-30T08:58:29.482Z,54.08
2022-07-30T08:59:59.093Z,54.78
2022-07-30T09:00:30.555Z,55.38
2022-07-30T09:01:29.463Z,54.35
2022-07-30T09:02:29.732Z,56.34
2022-07-30T09:03:29.428Z,54.16
2022-07-30T09:04:29.482Z,55.74
2022-07-30T09:05:29.417Z,54.85
2022-07-30T09:06:29.391Z,53.63
2022-07-30T09:07:29.429Z,54.25
2022-07-30T09:08:29.377Z,54.06
2022-07-30T09:09:29.369Z,55.02
2022-07-30T09:10:29.352Z,54.23
2022-07-30T09:11:29.362Z,53.23
2022-07-30T09:12:29.387Z,54.25
2022-07-30T09:13:29.319Z,54.72
2022-07-30T09:14:30.049Z,54.10
2022-07-30T09:15:29.311Z,54.00
2022-07-30T09:16:29.286Z,53.51
2022-07-30T09:17:32.680Z,54.77
2022-07-30T09:18:29.302Z,52.29
2022-07-30T09:19:29.255Z,53.19
2022-07-30T09:20:29.250Z,53.38
2022-07-30T09:21:29.329Z,53.58
2022-07-30T09:22:29.241Z,53.48
2022-07-30T09:23:29.218Z,53.98
2022-07-30T09:24:29.240Z,53.45
2022-07-30T09:25:29.193Z,53.28
2022-07-30T09:26:30.256Z,53.85
2022-07-30T09:27:29.201Z,52.98
2022-07-30T09:28:29.179Z,53.58
2022-07-30T09:29:29.150Z,53.91
2022-07-30T09:30:32.290Z,53.41
2022-07-30T09:32:29.129Z,53.38
2022-07-30T09:33:29.208Z,53.68
2022-07-30T09:34:29.121Z,53.70
2022-07-30T09:35:29.084Z,53.51
2022-07-30T09:36:29.090Z,53.31
2022-07-30T09:37:29.111Z,54.30
2022-07-30T09:38:29.098Z,54.08
2022-07-30T09:39:29.066Z,53.78
2022-07-30T09:40:32.097Z,54.08
2022-07-30T09:41:38.778Z,53.36
2022-07-30T09:42:30.030Z,53.38
2022-07-30T09:43:29.009Z,53.78
2022-07-30T09:44:28.993Z,52.96
2022-07-30T09:45:34.721Z,53.45
2022-07-30T09:46:30.042Z,53.85
2022-07-30T09:47:28.971Z,52.96
2022-07-30T09:48:28.948Z,52.66
2022-07-30T09:49:29.071Z,53.78
2022-07-30T09:50:30.058Z,53.58
2022-07-30T09:51:56.461Z,53.19
2022-07-30T09:52:29.928Z,54.05
2022-07-30T09:53:29.010Z,52.86
2022-07-30T09:54:28.893Z,53.03
2022-07-30T09:55:28.883Z,52.24
2022-07-30T09:56:30.115Z,53.56
2022-07-30T09:57:28.890Z,53.56
2022-07-30T09:58:28.855Z,53.03
2022-07-30T09:59:35.048Z,52.44
2022-07-30T10:00:29.871Z,52.24
2022-07-30T10:01:49.689Z,52.54
2022-07-30T10:02:32.310Z,52.44
2022-07-30T10:03:34.097Z,52.44
2022-07-30T10:04:29.796Z,52.71
2022-07-30T10:05:28.777Z,52.91
2022-07-30T10:06:28.771Z,52.71
2022-07-30T10:07:28.762Z,51.72
2022-07-30T10:08:29.796Z,53.03
2022-07-30T10:09:28.736Z,52.54
2022-07-30T10:10:28.731Z,52.54
2022-07-30T10:11:31.312Z,52.81
2022-07-30T10:12:28.715Z,52.84
2022-07-30T10:13:29.564Z,52.51
2022-07-30T10:14:30.750Z,52.41
2022-07-30T10:15:28.676Z,50.81
2022-07-30T10:16:28.747Z,50.51
2022-07-30T10:17:28.689Z,50.60
2022-07-30T10:18:28.690Z,51.82
2022-07-30T10:19:40.346Z,51.60
2022-07-30T10:20:29.642Z,51.79
2022-07-30T10:21:28.625Z,50.60
2022-07-30T10:22:28.621Z,50.41
2022-07-30T10:23:28.611Z,51.20
2022-07-30T10:24:28.602Z,51.40
2022-07-30T10:25:28.581Z,52.02
2022-07-30T10:26:28.562Z,51.99
2022-07-30T10:27:28.562Z,51.99
2022-07-30T10:28:28.540Z,51.99
2022-07-30T10:29:34.038Z,51.67
2022-07-30T10:30:29.561Z,51.67
2022-07-30T10:31:48.541Z,50.71
2022-07-30T10:32:30.938Z,50.60
2022-07-30T10:33:36.600Z,51.23
2022-07-30T10:34:34.026Z,51.92
2022-07-30T10:35:34.769Z,51.50
2022-07-30T10:36:29.493Z,51.79
2022-07-30T10:37:28.443Z,51.18
2022-07-30T10:38:28.443Z,51.18
2022-07-30T10:39:28.440Z,50.46
2022-07-30T10:40:30.948Z,50.18
2022-07-30T10:41:42.512Z,50.78
2022-07-30T10:42:29.419Z,49.69
2022-07-30T10:43:31.791Z,50.68
2022-07-30T10:44:28.387Z,51.15
2022-07-30T10:45:28.364Z,50.58
2022-07-30T10:46:28.363Z,50.76
2022-07-30T10:47:33.366Z,51.72
2022-07-30T10:48:29.352Z,51.42
2022-07-30T10:49:28.330Z,51.10
2022-07-30T10:50:29.325Z,49.79
2022-07-30T10:51:34.711Z,50.46
2022-07-30T10:52:29.296Z,50.16
2022-07-30T10:53:28.606Z,49.37
2022-07-30T10:54:28.281Z,49.48
2022-07-30T10:55:36.911Z,48.19
2022-07-30T10:56:29.260Z,47.13
2022-07-30T10:57:32.209Z,48.21
2022-07-30T10:58:28.240Z,49.13
2022-07-30T10:59:29.131Z,49.15
2022-07-30T11:00:28.230Z,49.35
2022-07-30T11:01:30.550Z,49.91
2022-07-30T11:02:28.197Z,49.40
2022-07-30T11:03:40.617Z,48.19
2022-07-30T11:04:29.579Z,49.08
2022-07-30T11:05:43.791Z,46.29
2022-07-30T11:06:29.190Z,47.79
2022-07-30T11:07:28.140Z,47.30
2022-07-30T11:08:32.596Z,46.51
2022-07-30T11:09:29.122Z,46.81
2022-07-30T11:10:28.125Z,46.61
2022-07-30T11:12:02.058Z,46.41
2022-07-30T11:12:29.104Z,47.40
2022-07-30T11:13:28.076Z,48.78
2022-07-30T11:14:28.072Z,47.97
2022-07-30T11:15:28.139Z,46.39
2022-07-30T11:16:29.060Z,45.03
2022-07-30T11:17:28.039Z,46.44
2022-07-30T11:18:28.618Z,46.44
2022-07-30T11:19:55.753Z,46.33
2022-07-30T11:20:28.997Z,45.74
2022-07-30T11:21:27.998Z,46.53
2022-07-30T11:22:27.978Z,46.53
2022-07-30T11:23:27.965Z,46.44
2022-07-30T11:24:27.973Z,46.61
2022-07-30T11:25:50.355Z,47.69
2022-07-30T11:26:28.948Z,48.04
2022-07-30T11:27:27.927Z,47.03
2022-07-30T11:28:27.921Z,45.93
2022-07-30T11:29:33.146Z,44.57
2022-07-30T11:30:30.590Z,43.70
2022-07-30T11:31:30.700Z,44.71
2022-07-30T11:32:29.677Z,45.89
2022-07-30T11:33:33.087Z,46.00
2022-07-30T11:34:31.486Z,46.31
2022-07-30T11:35:34.614Z,46.70
2022-07-30T11:36:28.848Z,47.08
2022-07-30T11:37:32.200Z,47.45
2022-07-30T11:38:27.978Z,47.72
2022-07-30T11:39:29.799Z,46.22
2022-07-30T11:40:28.987Z,46.62
2022-07-30T11:41:27.804Z,46.42
2022-07-30T11:42:27.808Z,46.04
2022-07-30T11:43:36.295Z,46.25
2022-07-30T11:44:28.754Z,45.63
2022-07-30T11:45:28.178Z,46.72
2022-07-30T11:46:29.302Z,46.03
2022-07-30T11:47:27.736Z,46.42
2022-07-30T11:48:27.847Z,44.35
2022-07-30T11:49:27.789Z,45.73
2022-07-30T11:50:27.691Z,44.55
2022-07-30T11:51:27.687Z,44.62
2022-07-30T11:52:27.689Z,44.82
2022-07-30T11:53:27.668Z,44.60
2022-07-30T11:54:27.667Z,44.55
2022-07-30T11:55:27.654Z,46.34
2022-07-30T11:56:27.635Z,44.76
2022-07-30T11:57:27.625Z,43.86
2022-07-30T11:58:28.608Z,45.04
2022-07-30T11:59:27.614Z,44.35
2022-07-30T12:00:27.603Z,43.96
2022-07-30T12:01:27.586Z,45.75
2022-07-30T12:02:27.588Z,43.59
2022-07-30T12:03:29.949Z,44.18
2022-07-30T12:04:27.555Z,44.67
2022-07-30T12:05:27.543Z,44.69
2022-07-30T12:06:27.564Z,44.61
2022-07-30T12:07:27.516Z,45.52
2022-07-30T12:08:35.230Z,46.04
2022-07-30T12:09:28.504Z,46.66
2022-07-30T12:10:27.788Z,45.64
2022-07-30T12:11:27.483Z,45.54
2022-07-30T12:12:27.484Z,45.74
2022-07-30T12:13:45.061Z,46.31
2022-07-30T12:14:28.447Z,44.51
2022-07-30T12:15:27.436Z,44.69
2022-07-30T12:16:27.428Z,45.01
2022-07-30T12:17:27.418Z,45.10
2022-07-30T12:18:27.455Z,44.43
2022-07-30T12:19:27.402Z,45.25
2022-07-30T12:20:27.389Z,46.53
2022-07-30T12:21:27.378Z,46.04
2022-07-30T12:22:27.373Z,46.33
2022-07-30T12:23:27.365Z,47.54
2022-07-30T12:24:27.378Z,46.33
2022-07-30T12:25:27.340Z,45.52
2022-07-30T12:26:27.414Z,46.48
2022-07-30T12:27:27.319Z,45.57
2022-07-30T12:28:27.310Z,44.57
2022-07-30T12:29:27.296Z,44.35
2022-07-30T12:30:27.315Z,45.14
2022-07-30T12:31:27.282Z,44.96
2022-07-30T12:32:27.263Z,44.32
2022-07-30T12:33:27.254Z,43.84
2022-07-30T12:34:27.254Z,44.65
2022-07-30T12:35:27.234Z,44.65
2022-07-30T12:36:27.230Z,44.68
2022-07-30T12:37:27.214Z,45.29
2022-07-30T12:38:27.212Z,45.76
2022-07-30T12:39:27.216Z,45.37
2022-07-30T12:40:27.184Z,46.28
2022-07-30T12:41:27.175Z,45.67
2022-07-30T12:42:27.179Z,44.80
2022-07-30T12:43:27.156Z,45.76
2022-07-30T12:44:27.155Z,44.70
2022-07-30T12:45:27.140Z,44.90
2022-07-30T12:46:27.123Z,45.79
2022-07-30T12:47:27.119Z,45.98
2022-07-30T12:48:27.112Z,46.08
2022-07-30T12:49:27.125Z,45.81
2022-07-30T12:50:28.092Z,46.08
2022-07-30T12:51:27.072Z,46.38
2022-07-30T12:52:28.527Z,46.20
2022-07-30T12:53:27.058Z,45.90
2022-07-30T12:54:27.058Z,45.31
2022-07-30T12:55:27.056Z,46.01
2022-07-30T12:56:34.633Z,45.81
2022-07-30T12:57:34.611Z,45.79
2022-07-30T12:58:34.647Z,46.67
2022-07-30T12:59:27.028Z,46.75
2022-07-30T13:00:26.990Z,49.89
2022-07-30T13:01:27.159Z,48.19
2022-07-30T13:02:26.956Z,45.79
2022-07-30T13:03:26.963Z,46.59
2022-07-30T13:04:26.966Z,45.79
2022-07-30T13:05:26.924Z,45.10
2022-07-30T13:06:26.944Z,43.94
2022-07-30T13:07:26.913Z,43.73
2022-07-30T13:08:26.896Z,43.23
2022-07-30T13:09:26.901Z,43.73
2022-07-30T13:10:30.696Z,44.24
2022-07-30T13:11:26.884Z,44.81
2022-07-30T13:12:26.872Z,44.32
2022-07-30T13:13:26.912Z,44.00
2022-07-30T13:14:26.940Z,44.12
2022-07-30T13:15:26.883Z,44.81
2022-07-30T13:16:26.825Z,46.26
2022-07-30T13:17:26.825Z,46.54
2022-07-30T13:18:26.796Z,44.25
2022-07-30T13:19:26.807Z,42.68
2022-07-30T13:20:26.801Z,41.81
2022-07-30T13:21:26.840Z,42.13
2022-07-30T13:22:26.768Z,42.72
2022-07-30T13:23:26.790Z,42.54
2022-07-30T13:24:26.731Z,43.73
2022-07-30T13:25:26.739Z,43.41
2022-07-30T13:26:27.747Z,46.44
2022-07-30T13:27:26.732Z,42.69
2022-07-30T13:28:26.750Z,44.06
2022-07-30T13:29:26.720Z,41.69
2022-07-30T13:30:26.715Z,41.17
2022-07-30T13:31:26.751Z,41.86
2022-07-30T13:32:26.669Z,45.71
2022-07-30T13:33:26.681Z,41.25
2022-07-30T13:34:26.644Z,41.49
2022-07-30T13:35:26.636Z,42.00
2022-07-30T13:36:26.620Z,42.13
2022-07-30T13:37:37.580Z,43.01
2022-07-30T13:38:27.648Z,42.74
2022-07-30T13:39:26.599Z,42.83
2022-07-30T13:40:26.596Z,41.85
2022-07-30T13:41:26.578Z,42.54
2022-07-30T13:42:26.567Z,41.93
2022-07-30T13:43:26.543Z,41.31
2022-07-30T13:44:26.561Z,40.53
2022-07-30T13:45:26.523Z,42.10
2022-07-30T13:46:26.544Z,42.13
2022-07-30T13:47:26.499Z,42.82
2022-07-30T13:48:26.495Z,42.83
2022-07-30T13:49:26.552Z,43.62
2022-07-30T13:50:26.469Z,43.92
2022-07-30T13:51:26.501Z,43.90
2022-07-30T13:52:26.443Z,43.98
2022-07-30T13:53:26.449Z,42.79
2022-07-30T13:54:26.491Z,43.51
2022-07-30T13:55:26.414Z,43.11
2022-07-30T13:56:26.434Z,44.12
2022-07-30T13:57:26.391Z,43.23
2022-07-30T13:58:26.394Z,42.93
2022-07-30T13:59:26.417Z,43.92
2022-07-30T14:00:26.363Z,42.93
2022-07-30T14:01:26.445Z,42.83
2022-07-30T14:02:26.376Z,43.60
2022-07-30T14:03:26.720Z,42.30
2022-07-30T14:04:26.423Z,42.08
2022-07-30T14:05:26.428Z,42.50
2022-07-30T14:06:26.323Z,42.20
2022-07-30T14:07:26.287Z,42.61
2022-07-30T14:08:26.292Z,42.93
2022-07-30T14:09:26.276Z,43.03
2022-07-30T14:10:26.257Z,43.11
2022-07-30T14:11:26.249Z,43.31
2022-07-30T14:12:26.238Z,41.91
2022-07-30T14:13:26.236Z,42.30
2022-07-30T14:14:26.224Z,41.59
2022-07-30T14:15:26.215Z,41.91
2022-07-30T14:16:44.679Z,42.10
2022-07-30T14:17:27.186Z,42.28
2022-07-30T14:18:26.176Z,42.08
2022-07-30T14:19:26.175Z,42.28
2022-07-30T14:20:29.015Z,41.00
2022-07-30T14:21:26.162Z,42.30
2022-07-30T14:22:26.147Z,42.10
2022-07-30T14:23:26.133Z,43.11
2022-07-30T14:24:26.117Z,42.54
2022-07-30T14:25:26.131Z,43.15
2022-07-30T14:26:30.239Z,42.44
2022-07-30T14:27:27.095Z,42.13
2022-07-30T14:28:26.091Z,41.93
2022-07-30T14:29:26.158Z,41.91
2022-07-30T14:30:26.058Z,42.00
2022-07-30T14:31:26.063Z,41.69
2022-07-30T14:32:28.732Z,40.51
2022-07-30T14:33:27.031Z,41.17
2022-07-30T14:34:26.028Z,42.16
2022-07-30T14:35:26.011Z,40.88
2022-07-30T14:36:27.451Z,42.07
2022-07-30T14:37:29.609Z,40.47
2022-07-30T14:38:27.578Z,40.56
2022-07-30T14:40:39.326Z,39.89
2022-07-30T14:41:36.808Z,40.01
2022-07-30T14:42:36.831Z,40.80
2022-07-30T14:43:36.670Z,40.78
2022-07-30T14:44:39.829Z,41.96
2022-07-30T14:45:38.530Z,40.69
2022-07-30T14:46:51.965Z,41.30
2022-07-30T14:47:38.123Z,40.62
2022-07-30T14:48:37.913Z,41.33
2022-07-30T14:49:37.369Z,42.26
2022-07-30T14:50:51.471Z,42.29
2022-07-30T14:51:37.615Z,43.10
2022-07-30T14:52:39.124Z,43.49
2022-07-30T14:53:37.535Z,44.10
2022-07-30T14:54:36.870Z,44.01
2022-07-30T14:55:36.600Z,43.91
2022-07-30T14:56:37.404Z,44.02
2022-07-30T14:57:40.780Z,44.72
2022-07-30T14:58:38.371Z,44.32
2022-07-30T14:59:38.860Z,43.73
2022-07-30T15:00:48.617Z,44.62
2022-07-30T15:01:40.932Z,44.52
2022-07-30T15:02:45.534Z,45.09
2022-07-30T15:32:14.161Z,44.57
2022-07-30T15:33:14.181Z,43.96
2022-07-30T15:34:14.149Z,42.69
2022-07-30T15:35:14.414Z,43.96
2022-07-30T15:36:14.111Z,41.17
2022-07-30T15:37:14.120Z,40.78
2022-07-30T15:38:14.113Z,40.90
2022-07-30T15:39:14.072Z,41.78
2022-07-30T15:40:14.070Z,40.90
2022-07-30T15:41:14.114Z,40.72
2022-07-30T15:42:14.056Z,40.94
2022-07-30T15:43:14.025Z,42.60
2022-07-30T15:44:14.055Z,42.10
2022-07-30T15:45:17.630Z,42.60
2022-07-30T15:46:13.997Z,42.69
2022-07-30T15:47:14.410Z,42.32
2022-07-30T15:48:14.015Z,42.10
2022-07-30T15:49:15.094Z,41.91
2022-07-30T15:50:13.965Z,41.22
2022-07-30T15:51:13.950Z,41.31
2022-07-30T15:52:13.979Z,41.12
2022-07-30T15:53:17.557Z,40.84
2022-07-30T15:54:13.922Z,41.16
2022-07-30T15:55:13.913Z,42.44
2022-07-30T15:56:13.898Z,42.07
2022-07-30T15:57:13.891Z,42.76
2022-07-30T15:58:13.891Z,43.37
2022-07-30T15:59:13.864Z,43.29
2022-07-30T16:00:13.860Z,44.58
2022-07-30T16:01:13.907Z,43.80
2022-07-30T16:02:13.843Z,44.40
2022-07-30T16:03:13.830Z,45.59
2022-07-30T16:04:19.697Z,46.88
2022-07-30T16:05:14.809Z,46.67
2022-07-30T16:06:13.826Z,45.39
2022-07-30T16:07:13.788Z,45.71
2022-07-30T16:08:13.779Z,46.89
2022-07-30T16:09:13.786Z,46.80
2022-07-30T16:10:13.752Z,45.74
2022-07-30T16:11:13.741Z,44.20
2022-07-30T16:12:13.743Z,44.57
2022-07-30T16:13:13.719Z,43.68
2022-07-30T16:14:13.717Z,45.01
2022-07-30T16:15:13.704Z,46.41
2022-07-30T16:16:13.690Z,46.63
2022-07-30T16:17:14.127Z,46.73
2022-07-30T16:18:13.667Z,45.63
2022-07-30T16:19:13.657Z,44.58
2022-07-30T16:20:13.645Z,40.98
2022-07-30T16:21:13.646Z,41.31
2022-07-30T16:22:14.940Z,40.56
2022-07-30T16:23:18.242Z,40.17
2022-07-30T16:24:14.615Z,39.92
2022-07-30T16:25:13.661Z,40.01
2022-07-30T16:26:13.590Z,39.23
2022-07-30T16:27:13.586Z,39.61
2022-07-30T16:28:13.605Z,39.47
2022-07-30T16:29:14.139Z,38.78
2022-07-30T16:30:13.713Z,38.60
2022-07-30T16:31:13.536Z,39.70
2022-07-30T16:32:13.528Z,40.13
2022-07-30T16:33:13.555Z,42.91
2022-07-30T16:34:13.500Z,43.86
2022-07-30T16:35:13.662Z,44.00
2022-07-30T16:36:13.495Z,43.78
2022-07-30T16:37:13.476Z,43.64
2022-07-30T16:38:13.467Z,42.24
2022-07-30T16:39:13.471Z,42.55
2022-07-30T16:40:13.440Z,44.43
2022-07-30T16:41:13.841Z,42.83
2022-07-30T16:42:13.425Z,44.53
2022-07-30T16:43:13.417Z,41.96
2022-07-30T16:44:13.405Z,42.59
2022-07-30T16:45:13.407Z,42.14
2022-07-30T16:46:13.378Z,41.02
2022-07-30T16:47:14.063Z,42.05
2022-07-30T16:48:13.358Z,39.19
2022-07-30T16:49:13.429Z,38.21
2022-07-30T16:50:13.377Z,39.92
2022-07-30T16:51:13.339Z,41.73
2022-07-30T16:52:13.319Z,43.86
2022-07-30T16:53:14.635Z,45.78
2022-07-30T16:54:13.296Z,45.70
2022-07-30T16:55:13.292Z,46.33
2022-07-30T16:56:13.353Z,47.96
2022-07-30T16:57:13.301Z,48.28
2022-07-30T16:58:13.263Z,48.68
2022-07-30T16:59:13.952Z,49.00
2022-07-30T17:00:13.248Z,49.22
2022-07-30T17:01:13.380Z,49.22
2022-07-30T17:02:13.212Z,49.54
2022-07-30T17:03:16.913Z,50.43
2022-07-30T17:04:14.201Z,48.48
2022-07-30T17:05:13.894Z,46.48
2022-07-30T17:06:13.183Z,44.39
2022-07-30T17:07:13.240Z,44.84
2022-07-30T17:08:13.152Z,43.60
2022-07-30T17:09:16.041Z,41.78
2022-07-30T17:10:13.143Z,42.32
2022-07-30T17:11:45.840Z,42.77
2022-07-30T17:12:14.125Z,44.49
2022-07-30T17:13:13.123Z,45.50
2022-07-30T17:14:13.101Z,46.26
2022-07-30T17:15:13.117Z,46.47
2022-07-30T17:16:13.073Z,45.15
2022-07-30T17:17:14.487Z,44.52
2022-07-30T17:18:13.058Z,42.79
2022-07-30T17:19:13.059Z,44.43
2022-07-30T17:20:13.038Z,43.70
2022-07-30T17:21:13.033Z,44.34
2022-07-30T17:22:13.013Z,45.07
2022-07-30T17:23:13.006Z,45.31
2022-07-30T17:24:13.007Z,45.81
2022-07-30T17:25:12.988Z,46.72
2022-07-30T17:26:12.978Z,47.04
2022-07-30T17:27:12.973Z,48.63
2022-07-30T17:28:12.954Z,48.13
2022-07-30T17:29:14.449Z,49.94
2022-07-30T17:30:12.937Z,49.54
2022-07-30T17:31:12.915Z,46.86
2022-07-30T17:32:12.906Z,46.77
2022-07-30T17:33:12.912Z,47.49
2022-07-30T17:34:12.899Z,48.08
2022-07-30T17:35:14.051Z,48.33
2022-07-30T17:36:12.866Z,48.05
2022-07-30T17:37:12.860Z,47.75
2022-07-30T17:38:12.847Z,48.08
2022-07-30T17:40:01.534Z,48.69
2022-07-30T17:40:30.678Z,49.39
2022-07-30T17:41:13.811Z,50.58
2022-07-30T17:42:13.259Z,50.70
2022-07-30T17:43:12.789Z,50.70
2022-07-30T17:44:12.799Z,49.61
2022-07-30T17:45:12.785Z,51.60
2022-07-30T17:46:12.772Z,52.89
2022-07-30T17:47:14.433Z,53.11
2022-07-30T17:48:12.747Z,52.44
2022-07-30T17:49:12.805Z,52.91
2022-07-30T17:50:12.744Z,52.61
2022-07-30T17:51:12.759Z,51.62
2022-07-30T17:52:12.701Z,52.54
2022-07-30T17:53:12.699Z,53.51
2022-07-30T17:54:12.680Z,52.12
2022-07-30T17:55:12.702Z,51.72
2022-07-30T17:56:26.602Z,51.72
2022-07-30T17:57:13.694Z,53.21
2022-07-30T17:58:12.644Z,53.21
2022-07-30T17:59:14.025Z,51.62
2022-07-30T18:00:12.623Z,51.10
2022-07-30T18:01:12.679Z,53.08
2022-07-30T18:02:12.602Z,53.38
2022-07-30T18:03:12.599Z,53.58
2022-07-30T18:04:12.585Z,53.88
2022-07-30T18:05:12.574Z,53.98
2022-07-30T18:06:12.558Z,55.17
2022-07-30T18:07:12.555Z,56.26
2022-07-30T18:08:12.564Z,56.85
2022-07-30T18:09:12.531Z,56.16
2022-07-30T18:10:12.518Z,55.66
2022-07-30T18:11:13.926Z,56.66
2022-07-30T18:12:12.528Z,56.36
2022-07-30T18:13:26.712Z,53.41
2022-07-30T18:14:14.309Z,53.91
2022-07-30T18:15:12.592Z,55.10
2022-07-30T18:16:12.588Z,55.40
2022-07-30T18:17:14.435Z,56.78
2022-07-30T18:18:12.920Z,56.29
2022-07-30T18:19:22.640Z,55.99
2022-07-30T18:20:13.698Z,56.59
2022-07-30T18:21:13.692Z,56.68
2022-07-30T18:22:14.896Z,57.01
2022-07-30T18:23:14.331Z,57.01
2022-07-30T18:24:14.058Z,56.64
2022-07-30T18:26:13.644Z,58.33
2022-07-30T18:27:12.882Z,58.73
2022-07-30T18:28:13.873Z,58.62
2022-07-30T18:29:15.042Z,58.73
2022-07-30T18:30:12.713Z,58.95
2022-07-30T18:31:13.365Z,58.95
2022-07-30T18:32:13.379Z,59.95
2022-07-30T18:34:13.573Z,58.78
2022-07-30T18:35:14.774Z,59.18
2022-07-30T18:36:12.395Z,59.81
2022-07-30T18:37:12.401Z,60.50
2022-07-30T18:38:12.325Z,60.30
2022-07-30T18:39:12.230Z,59.31
2022-07-30T18:40:12.223Z,59.94
2022-07-30T18:41:12.194Z,61.13
2022-07-30T18:42:12.186Z,60.53
2022-07-30T18:43:12.176Z,60.33
2022-07-30T18:44:12.161Z,61.85
2022-07-30T18:45:12.178Z,61.06
2022-07-30T18:46:12.136Z,62.35
2022-07-30T18:47:12.127Z,61.46
2022-07-30T18:48:12.113Z,60.89
2022-07-30T18:49:34.934Z,59.09
2022-07-30T18:50:13.214Z,59.69
2022-07-30T18:51:14.147Z,60.19
2022-07-30T18:52:12.079Z,61.09
2022-07-30T18:53:15.527Z,61.19
2022-07-30T18:54:12.061Z,62.08
2022-07-30T18:55:12.043Z,61.52
2022-07-30T18:56:12.157Z,60.82
2022-07-30T18:57:14.523Z,60.95
2022-07-30T18:58:12.030Z,62.61
2022-07-30T18:59:12.005Z,62.84
2022-07-30T19:00:31.112Z,63.34
2022-07-30T19:01:13.054Z,63.14
2022-07-30T19:02:11.970Z,63.27
2022-07-30T19:03:16.406Z,64.47
2022-07-30T19:04:12.956Z,64.57
2022-07-30T19:05:11.948Z,64.97
2022-07-30T19:06:11.924Z,65.77
2022-07-30T19:07:11.921Z,65.90
2022-07-30T19:08:11.929Z,65.80
2022-07-30T19:09:17.394Z,66.93
2022-07-30T19:10:12.931Z,66.53
2022-07-30T19:11:11.893Z,67.36
2022-07-30T19:12:11.870Z,66.56
2022-07-30T19:13:11.857Z,67.26
2022-07-30T19:14:11.846Z,66.86
2022-07-30T19:15:14.217Z,66.99
2022-07-30T19:16:11.848Z,66.99
2022-07-30T19:17:15.230Z,67.09
2022-07-30T19:18:11.829Z,66.59
2022-07-30T19:19:11.821Z,66.26
2022-07-30T19:20:11.786Z,65.96
2022-07-30T19:21:14.163Z,65.86
2022-07-30T19:22:11.756Z,65.66
2022-07-30T19:23:11.757Z,66.06
2022-07-30T19:24:11.748Z,65.76
2022-07-30T19:25:11.726Z,66.06
2022-07-30T19:26:11.737Z,66.96
2022-07-30T19:27:14.291Z,66.66
2022-07-30T19:28:11.706Z,66.39
2022-07-30T19:29:11.727Z,66.89
2022-07-30T19:30:11.682Z,68.09
2022-07-30T19:31:11.661Z,67.89
2022-07-30T19:32:11.652Z,69.43
2022-07-30T19:33:15.131Z,69.62
2022-07-30T19:34:11.646Z,69.32
2022-07-30T19:35:13.606Z,68.66
2022-07-30T19:36:11.625Z,69.46
2022-07-30T19:37:11.679Z,69.96
2022-07-30T19:38:14.305Z,70.36
2022-07-30T19:39:21.119Z,70.56
2022-07-30T19:40:12.839Z,70.79
2022-07-30T19:41:11.557Z,71.16
2022-07-30T19:42:11.566Z,72.09
2022-07-30T19:43:11.557Z,71.19
2022-07-30T19:44:11.537Z,71.03
2022-07-30T19:45:12.138Z,71.39
2022-07-30T19:46:11.518Z,71.83
2022-07-30T19:47:11.497Z,72.43
2022-07-30T19:48:11.492Z,72.63
2022-07-30T19:49:11.531Z,72.63
2022-07-30T19:50:11.582Z,72.93
2022-07-30T19:51:20.225Z,72.63
2022-07-30T19:52:23.900Z,72.93
2022-07-30T19:53:12.448Z,71.93
2022-07-30T19:54:11.434Z,71.93
2022-07-30T19:55:30.553Z,72.33
2022-07-30T19:56:12.403Z,73.13
2022-07-30T19:57:11.387Z,72.89
2022-07-30T19:59:14.587Z,73.19
2022-07-30T20:00:11.367Z,73.10
2022-07-30T20:01:11.409Z,73.63
2022-07-30T20:02:11.341Z,72.89
2022-07-30T20:03:14.569Z,72.83
2022-07-30T20:04:11.344Z,72.73
2022-07-30T20:05:11.303Z,73.23
2022-07-30T20:06:14.609Z,73.23
2022-07-30T20:07:11.282Z,72.63
2022-07-30T20:08:11.282Z,72.23
2022-07-30T20:09:14.217Z,71.73
2022-07-30T20:10:11.255Z,72.03
2022-07-30T20:11:11.245Z,72.03
2022-07-30T20:12:12.257Z,72.33
2022-07-30T20:13:11.225Z,72.43
2022-07-30T20:14:11.214Z,72.83
2022-07-30T20:15:14.884Z,72.97
2022-07-30T20:16:11.185Z,72.77
2022-07-30T20:17:11.174Z,72.97
2022-07-30T20:18:11.182Z,73.36
2022-07-30T20:19:11.155Z,73.86
2022-07-30T20:20:11.146Z,74.40
2022-07-30T20:21:15.099Z,74.51
2022-07-30T20:22:11.552Z,74.20
2022-07-30T20:23:11.121Z,74.30
2022-07-30T20:24:11.112Z,74.20
2022-07-30T20:25:11.109Z,74.94
2022-07-30T20:26:12.610Z,74.60
2022-07-30T20:27:36.582Z,75.31
2022-07-30T20:28:12.063Z,75.54
2022-07-30T20:29:19.187Z,76.25
2022-07-30T20:30:12.055Z,75.74
2022-07-30T20:31:11.041Z,75.64
2022-07-30T20:32:11.025Z,76.08
2022-07-30T20:33:11.022Z,76.38